sensor_id;sensor_type;location;lat;lon;timestamp;P1;durP1;ratioP1;P2;durP2;ratioP2
41623;SDS011;27319;50.306;18.926;2023-12-20T00:02:34;11.63;;;6.30;;
41623;SDS011;27319;50.306;18.926;2023-12-20T00:06:35;12.60;;;7.28;;
41623;SDS011;27319;50.306;18.926;2023-12-20T00:09:56;12.82;;;7.03;;
41623;SDS011;27319;50.306;18.926;2023-12-20T00:13:57;12.95;;;6.82;;
41623;SDS011;27319;50.306;18.926;2023-12-20T00:17:57;16.75;;;7.72;;
41623;SDS011;27319;50.306;18.926;2023-12-20T00:21:59;11.82;;;7.03;;
41623;SDS011;27319;50.306;18.926;2023-12-20T00:25:59;13.82;;;6.97;;
41623;SDS011;27319;50.306;18.926;2023-12-20T00:30:00;14.30;;;7.65;;
41623;SDS011;27319;50.306;18.926;2023-12-20T00:34:01;14.85;;;7.90;;
41623;SDS011;27319;50.306;18.926;2023-12-20T00:38:02;11.95;;;6.95;;
41623;SDS011;27319;50.306;18.926;2023-12-20T00:42:03;12.52;;;6.65;;
41623;SDS011;27319;50.306;18.926;2023-12-20T00:46:03;13.45;;;8.10;;
41623;SDS011;27319;50.306;18.926;2023-12-20T00:50:04;16.00;;;7.47;;
41623;SDS011;27319;50.306;18.926;2023-12-20T00:54:05;15.35;;;8.10;;
41623;SDS011;27319;50.306;18.926;2023-12-20T00:58:06;12.50;;;7.15;;
41623;SDS011;27319;50.306;18.926;2023-12-20T01:02:07;14.73;;;8.60;;
41623;SDS011;27319;50.306;18.926;2023-12-20T01:06:08;17.80;;;7.78;;
41623;SDS011;27319;50.306;18.926;2023-12-20T01:10:08;13.73;;;7.65;;
41623;SDS011;27319;50.306;18.926;2023-12-20T01:14:09;18.80;;;7.85;;
41623;SDS011;27319;50.306;18.926;2023-12-20T01:18:10;14.55;;;7.45;;
41623;SDS011;27319;50.306;18.926;2023-12-20T01:22:10;13.40;;;7.70;;
41623;SDS011;27319;50.306;18.926;2023-12-20T01:26:11;12.50;;;7.18;;
41623;SDS011;27319;50.306;18.926;2023-12-20T01:30:12;14.38;;;7.78;;
41623;SDS011;27319;50.306;18.926;2023-12-20T01:34:13;12.30;;;6.20;;
41623;SDS011;27319;50.306;18.926;2023-12-20T01:38:13;12.18;;;6.43;;
41623;SDS011;27319;50.306;18.926;2023-12-20T01:42:14;12.00;;;6.90;;
41623;SDS011;27319;50.306;18.926;2023-12-20T01:46:16;17.35;;;7.40;;
41623;SDS011;27319;50.306;18.926;2023-12-20T01:50:16;14.50;;;7.70;;
41623;SDS011;27319;50.306;18.926;2023-12-20T01:54:17;17.15;;;6.28;;
41623;SDS011;27319;50.306;18.926;2023-12-20T01:58:17;11.77;;;6.50;;
41623;SDS011;27319;50.306;18.926;2023-12-20T02:02:18;10.70;;;6.10;;
41623;SDS011;27319;50.306;18.926;2023-12-20T02:06:19;13.02;;;7.28;;
41623;SDS011;27319;50.306;18.926;2023-12-20T02:10:20;17.55;;;8.23;;
41623;SDS011;27319;50.306;18.926;2023-12-20T02:14:21;11.05;;;7.07;;
41623;SDS011;27319;50.306;18.926;2023-12-20T02:18:22;13.10;;;7.03;;
41623;SDS011;27319;50.306;18.926;2023-12-20T02:22:23;14.48;;;7.50;;
41623;SDS011;27319;50.306;18.926;2023-12-20T02:26:23;11.52;;;6.50;;
41623;SDS011;27319;50.306;18.926;2023-12-20T02:30:24;12.25;;;6.57;;
41623;SDS011;27319;50.306;18.926;2023-12-20T02:34:25;11.20;;;6.63;;
41623;SDS011;27319;50.306;18.926;2023-12-20T02:38:25;12.45;;;6.53;;
41623;SDS011;27319;50.306;18.926;2023-12-20T02:42:26;10.27;;;6.40;;
41623;SDS011;27319;50.306;18.926;2023-12-20T02:46:27;11.68;;;6.32;;
41623;SDS011;27319;50.306;18.926;2023-12-20T02:50:28;12.05;;;6.47;;
41623;SDS011;27319;50.306;18.926;2023-12-20T02:54:28;9.95;;;6.03;;
41623;SDS011;27319;50.306;18.926;2023-12-20T02:58:29;12.32;;;6.93;;
41623;SDS011;27319;50.306;18.926;2023-12-20T03:02:30;14.32;;;6.78;;
41623;SDS011;27319;50.306;18.926;2023-12-20T03:06:31;11.23;;;7.40;;
41623;SDS011;27319;50.306;18.926;2023-12-20T03:10:32;12.82;;;8.10;;
41623;SDS011;27319;50.306;18.926;2023-12-20T03:14:32;10.73;;;7.43;;
41623;SDS011;27319;50.306;18.926;2023-12-20T03:18:33;11.60;;;7.43;;
41623;SDS011;27319;50.306;18.926;2023-12-20T03:22:34;12.23;;;7.93;;
41623;SDS011;27319;50.306;18.926;2023-12-20T03:26:35;14.32;;;8.43;;
41623;SDS011;27319;50.306;18.926;2023-12-20T03:30:36;15.65;;;8.38;;
41623;SDS011;27319;50.306;18.926;2023-12-20T03:34:36;17.25;;;10.13;;
41623;SDS011;27319;50.306;18.926;2023-12-20T03:38:37;20.85;;;12.50;;
41623;SDS011;27319;50.306;18.926;2023-12-20T03:42:38;20.38;;;12.52;;
41623;SDS011;27319;50.306;18.926;2023-12-20T03:46:39;18.10;;;12.25;;
41623;SDS011;27319;50.306;18.926;2023-12-20T03:50:40;23.52;;;13.63;;
41623;SDS011;27319;50.306;18.926;2023-12-20T03:54:40;20.05;;;11.57;;
41623;SDS011;27319;50.306;18.926;2023-12-20T03:58:41;22.85;;;13.80;;
41623;SDS011;27319;50.306;18.926;2023-12-20T04:02:42;24.67;;;15.65;;
41623;SDS011;27319;50.306;18.926;2023-12-20T04:06:21;19.65;;;11.45;;
41623;SDS011;27319;50.306;18.926;2023-12-20T04:10:21;17.83;;;10.63;;
41623;SDS011;27319;50.306;18.926;2023-12-20T04:14:22;22.73;;;12.57;;
41623;SDS011;27319;50.306;18.926;2023-12-20T04:18:23;23.13;;;12.85;;
41623;SDS011;27319;50.306;18.926;2023-12-20T04:22:24;17.98;;;12.32;;
41623;SDS011;27319;50.306;18.926;2023-12-20T04:26:25;22.58;;;13.38;;
41623;SDS011;27319;50.306;18.926;2023-12-20T04:30:25;21.55;;;12.40;;
41623;SDS011;27319;50.306;18.926;2023-12-20T04:34:26;22.67;;;13.45;;
41623;SDS011;27319;50.306;18.926;2023-12-20T04:38:27;19.98;;;10.63;;
41623;SDS011;27319;50.306;18.926;2023-12-20T04:42:23;21.33;;;13.07;;
41623;SDS011;27319;50.306;18.926;2023-12-20T04:46:23;19.52;;;11.95;;
41623;SDS011;27319;50.306;18.926;2023-12-20T04:50:24;24.42;;;14.93;;
41623;SDS011;27319;50.306;18.926;2023-12-20T04:54:25;35.58;;;21.10;;
41623;SDS011;27319;50.306;18.926;2023-12-20T04:58:26;32.97;;;22.15;;
41623;SDS011;27319;50.306;18.926;2023-12-20T05:02:27;37.03;;;23.08;;
41623;SDS011;27319;50.306;18.926;2023-12-20T05:06:27;31.92;;;20.27;;
41623;SDS011;27319;50.306;18.926;2023-12-20T05:10:28;30.25;;;20.63;;
41623;SDS011;27319;50.306;18.926;2023-12-20T05:14:29;27.25;;;15.23;;
41623;SDS011;27319;50.306;18.926;2023-12-20T05:18:30;25.98;;;16.60;;
41623;SDS011;27319;50.306;18.926;2023-12-20T05:22:31;23.00;;;14.57;;
41623;SDS011;27319;50.306;18.926;2023-12-20T05:26:31;21.92;;;12.75;;
41623;SDS011;27319;50.306;18.926;2023-12-20T05:30:32;22.15;;;13.38;;
41623;SDS011;27319;50.306;18.926;2023-12-20T05:34:33;23.48;;;13.88;;
41623;SDS011;27319;50.306;18.926;2023-12-20T05:38:34;22.70;;;13.85;;
41623;SDS011;27319;50.306;18.926;2023-12-20T05:42:35;28.08;;;14.80;;
41623;SDS011;27319;50.306;18.926;2023-12-20T05:46:35;24.08;;;14.18;;
41623;SDS011;27319;50.306;18.926;2023-12-20T05:50:36;30.33;;;15.45;;
41623;SDS011;27319;50.306;18.926;2023-12-20T05:54:37;24.85;;;15.15;;
41623;SDS011;27319;50.306;18.926;2023-12-20T05:58:38;26.38;;;14.30;;
41623;SDS011;27319;50.306;18.926;2023-12-20T06:02:39;26.77;;;14.63;;
41623;SDS011;27319;50.306;18.926;2023-12-20T06:06:40;27.98;;;14.82;;
41623;SDS011;27319;50.306;18.926;2023-12-20T06:10:40;28.38;;;15.82;;
41623;SDS011;27319;50.306;18.926;2023-12-20T06:14:41;30.10;;;16.67;;
41623;SDS011;27319;50.306;18.926;2023-12-20T06:18:42;26.90;;;15.63;;
41623;SDS011;27319;50.306;18.926;2023-12-20T06:22:43;26.40;;;14.88;;
41623;SDS011;27319;50.306;18.926;2023-12-20T06:26:43;28.40;;;17.13;;
41623;SDS011;27319;50.306;18.926;2023-12-20T06:30:44;26.45;;;15.57;;
41623;SDS011;27319;50.306;18.926;2023-12-20T06:34:25;23.80;;;15.10;;
41623;SDS011;27319;50.306;18.926;2023-12-20T06:37:26;24.15;;;16.17;;
41623;SDS011;27319;50.306;18.926;2023-12-20T06:40:27;24.80;;;16.30;;
41623;SDS011;27319;50.306;18.926;2023-12-20T06:43:28;24.67;;;16.60;;
41623;SDS011;27319;50.306;18.926;2023-12-20T06:46:29;28.33;;;18.90;;
41623;SDS011;27319;50.306;18.926;2023-12-20T06:49:30;34.40;;;21.67;;
41623;SDS011;27319;50.306;18.926;2023-12-20T06:52:31;28.40;;;17.23;;
41623;SDS011;27319;50.306;18.926;2023-12-20T06:55:32;31.17;;;16.67;;
41623;SDS011;27319;50.306;18.926;2023-12-20T06:58:38;30.60;;;17.77;;
41623;SDS011;27319;50.306;18.926;2023-12-20T07:01:39;35.50;;;19.95;;
41623;SDS011;27319;50.306;18.926;2023-12-20T07:04:40;45.17;;;27.70;;
41623;SDS011;27319;50.306;18.926;2023-12-20T07:07:41;33.90;;;21.75;;
41623;SDS011;27319;50.306;18.926;2023-12-20T07:11:42;33.40;;;21.33;;
41623;SDS011;27319;50.306;18.926;2023-12-20T07:15:43;35.47;;;23.70;;
41623;SDS011;27319;50.306;18.926;2023-12-20T07:19:44;32.08;;;20.67;;
41623;SDS011;27319;50.306;18.926;2023-12-20T07:23:45;34.03;;;20.15;;
41623;SDS011;27319;50.306;18.926;2023-12-20T07:27:45;31.70;;;19.13;;
41623;SDS011;27319;50.306;18.926;2023-12-20T07:31:46;37.83;;;21.60;;
41623;SDS011;27319;50.306;18.926;2023-12-20T07:35:47;35.60;;;20.65;;
41623;SDS011;27319;50.306;18.926;2023-12-20T07:39:48;34.20;;;19.58;;
41623;SDS011;27319;50.306;18.926;2023-12-20T07:43:49;42.38;;;22.17;;
41623;SDS011;27319;50.306;18.926;2023-12-20T07:47:49;46.78;;;30.48;;
41623;SDS011;27319;50.306;18.926;2023-12-20T07:51:50;48.75;;;29.65;;
41623;SDS011;27319;50.306;18.926;2023-12-20T07:55:51;63.92;;;38.17;;
41623;SDS011;27319;50.306;18.926;2023-12-20T07:59:54;49.05;;;29.90;;
41623;SDS011;27319;50.306;18.926;2023-12-20T08:03:55;37.50;;;21.60;;
41623;SDS011;27319;50.306;18.926;2023-12-20T08:07:56;35.85;;;21.05;;
41623;SDS011;27319;50.306;18.926;2023-12-20T08:11:57;32.40;;;18.63;;
41623;SDS011;27319;50.306;18.926;2023-12-20T08:15:58;32.72;;;19.58;;
41623;SDS011;27319;50.306;18.926;2023-12-20T08:19:59;39.70;;;19.10;;
41623;SDS011;27319;50.306;18.926;2023-12-20T08:23:59;29.92;;;16.85;;
41623;SDS011;27319;50.306;18.926;2023-12-20T08:28:01;33.88;;;21.88;;
41623;SDS011;27319;50.306;18.926;2023-12-20T08:32:01;29.35;;;19.08;;
41623;SDS011;27319;50.306;18.926;2023-12-20T08:36:02;39.75;;;21.40;;
41623;SDS011;27319;50.306;18.926;2023-12-20T08:40:03;30.23;;;19.42;;
41623;SDS011;27319;50.306;18.926;2023-12-20T08:44:04;34.85;;;22.23;;
41623;SDS011;27319;50.306;18.926;2023-12-20T08:48:04;31.83;;;18.25;;
41623;SDS011;27319;50.306;18.926;2023-12-20T08:52:05;30.15;;;18.55;;
41623;SDS011;27319;50.306;18.926;2023-12-20T08:56:06;37.65;;;21.60;;
41623;SDS011;27319;50.306;18.926;2023-12-20T09:00:07;30.17;;;19.55;;
41623;SDS011;27319;50.306;18.926;2023-12-20T09:04:08;32.13;;;19.15;;
41623;SDS011;27319;50.306;18.926;2023-12-20T09:08:09;39.22;;;22.48;;
41623;SDS011;27319;50.306;18.926;2023-12-20T09:12:09;38.97;;;24.60;;
41623;SDS011;27319;50.306;18.926;2023-12-20T09:16:10;59.78;;;36.38;;
41623;SDS011;27319;50.306;18.926;2023-12-20T09:20:11;65.88;;;40.83;;
41623;SDS011;27319;50.306;18.926;2023-12-20T09:24:12;55.05;;;34.83;;
41623;SDS011;27319;50.306;18.926;2023-12-20T09:28:13;40.15;;;22.38;;
41623;SDS011;27319;50.306;18.926;2023-12-20T09:32:14;50.60;;;31.67;;
41623;SDS011;27319;50.306;18.926;2023-12-20T09:36:14;74.72;;;49.53;;
41623;SDS011;27319;50.306;18.926;2023-12-20T09:40:18;64.53;;;36.67;;
41623;SDS011;27319;50.306;18.926;2023-12-20T09:44:16;34.55;;;23.65;;
41623;SDS011;27319;50.306;18.926;2023-12-20T09:48:17;58.53;;;29.48;;
41623;SDS011;27319;50.306;18.926;2023-12-20T09:52:18;46.92;;;23.38;;
41623;SDS011;27319;50.306;18.926;2023-12-20T09:56:19;30.98;;;18.33;;
41623;SDS011;27319;50.306;18.926;2023-12-20T10:00:19;28.65;;;14.50;;
41623;SDS011;27319;50.306;18.926;2023-12-20T10:04:20;27.75;;;15.90;;
41623;SDS011;27319;50.306;18.926;2023-12-20T10:08:21;24.83;;;16.02;;
41623;SDS011;27319;50.306;18.926;2023-12-20T10:12:22;25.33;;;14.75;;
41623;SDS011;27319;50.306;18.926;2023-12-20T10:16:25;29.15;;;15.90;;
41623;SDS011;27319;50.306;18.926;2023-12-20T10:20:27;24.88;;;15.15;;
41623;SDS011;27319;50.306;18.926;2023-12-20T10:24:30;24.63;;;15.55;;
41623;SDS011;27319;50.306;18.926;2023-12-20T10:28:34;22.13;;;13.02;;
41623;SDS011;27319;50.306;18.926;2023-12-20T10:32:35;23.75;;;13.70;;
41623;SDS011;27319;50.306;18.926;2023-12-20T10:36:36;25.52;;;14.70;;
41623;SDS011;27319;50.306;18.926;2023-12-20T10:40:36;32.00;;;18.42;;
41623;SDS011;27319;50.306;18.926;2023-12-20T10:44:37;27.13;;;13.85;;
41623;SDS011;27319;50.306;18.926;2023-12-20T10:48:38;25.70;;;15.20;;
41623;SDS011;27319;50.306;18.926;2023-12-20T10:52:39;27.58;;;18.27;;
41623;SDS011;27319;50.306;18.926;2023-12-20T10:56:40;27.30;;;17.45;;
41623;SDS011;27319;50.306;18.926;2023-12-20T11:00:41;27.88;;;17.33;;
41623;SDS011;27319;50.306;18.926;2023-12-20T11:04:53;26.42;;;16.25;;
41623;SDS011;27319;50.306;18.926;2023-12-20T11:09:06;28.27;;;17.73;;
41623;SDS011;27319;50.306;18.926;2023-12-20T11:13:09;27.00;;;18.40;;
41623;SDS011;27319;50.306;18.926;2023-12-20T11:17:11;27.08;;;16.73;;
41623;SDS011;27319;50.306;18.926;2023-12-20T11:21:08;32.67;;;18.45;;
41623;SDS011;27319;50.306;18.926;2023-12-20T11:25:10;32.50;;;19.38;;
41623;SDS011;27319;50.306;18.926;2023-12-20T11:29:29;43.00;;;24.45;;
41623;SDS011;27319;50.306;18.926;2023-12-20T11:33:36;28.08;;;17.83;;
41623;SDS011;27319;50.306;18.926;2023-12-20T11:37:36;37.33;;;20.63;;
41623;SDS011;27319;50.306;18.926;2023-12-20T11:41:36;30.08;;;16.83;;
41623;SDS011;27319;50.306;18.926;2023-12-20T11:45:37;31.65;;;20.38;;
41623;SDS011;27319;50.306;18.926;2023-12-20T11:49:38;28.63;;;17.05;;
41623;SDS011;27319;50.306;18.926;2023-12-20T11:53:39;21.92;;;14.65;;
41623;SDS011;27319;50.306;18.926;2023-12-20T11:57:40;43.67;;;26.40;;
41623;SDS011;27319;50.306;18.926;2023-12-20T12:01:47;29.42;;;17.83;;
41623;SDS011;27319;50.306;18.926;2023-12-20T12:05:41;32.50;;;20.23;;
41623;SDS011;27319;50.306;18.926;2023-12-20T12:09:42;29.10;;;17.80;;
41623;SDS011;27319;50.306;18.926;2023-12-20T12:13:43;34.00;;;22.77;;
41623;SDS011;27319;50.306;18.926;2023-12-20T12:17:44;55.47;;;31.00;;
41623;SDS011;27319;50.306;18.926;2023-12-20T12:21:45;73.25;;;42.22;;
41623;SDS011;27319;50.306;18.926;2023-12-20T12:25:45;51.78;;;31.30;;
41623;SDS011;27319;50.306;18.926;2023-12-20T12:30:02;42.17;;;25.83;;
41623;SDS011;27319;50.306;18.926;2023-12-20T12:34:02;46.53;;;24.35;;
41623;SDS011;27319;50.306;18.926;2023-12-20T12:38:03;37.47;;;22.63;;
41623;SDS011;27319;50.306;18.926;2023-12-20T12:42:04;21.85;;;12.32;;
41623;SDS011;27319;50.306;18.926;2023-12-20T12:46:05;27.00;;;15.32;;
41623;SDS011;27319;50.306;18.926;2023-12-20T12:50:06;22.23;;;12.52;;
41623;SDS011;27319;50.306;18.926;2023-12-20T12:54:07;24.13;;;13.15;;
41623;SDS011;27319;50.306;18.926;2023-12-20T12:58:07;38.90;;;22.80;;
41623;SDS011;27319;50.306;18.926;2023-12-20T13:02:08;24.83;;;12.15;;
41623;SDS011;27319;50.306;18.926;2023-12-20T13:06:09;20.83;;;13.27;;
41623;SDS011;27319;50.306;18.926;2023-12-20T13:10:10;28.80;;;14.40;;
41623;SDS011;27319;50.306;18.926;2023-12-20T13:14:10;29.50;;;17.95;;
41623;SDS011;27319;50.306;18.926;2023-12-20T13:18:11;28.98;;;18.67;;
41623;SDS011;27319;50.306;18.926;2023-12-20T13:22:12;35.83;;;21.10;;
41623;SDS011;27319;50.306;18.926;2023-12-20T13:26:13;31.55;;;18.67;;
41623;SDS011;27319;50.306;18.926;2023-12-20T13:30:14;34.97;;;20.33;;
41623;SDS011;27319;50.306;18.926;2023-12-20T13:34:14;51.20;;;30.92;;
41623;SDS011;27319;50.306;18.926;2023-12-20T13:38:15;46.42;;;28.02;;
41623;SDS011;27319;50.306;18.926;2023-12-20T13:42:16;43.80;;;28.02;;
41623;SDS011;27319;50.306;18.926;2023-12-20T13:46:17;42.92;;;27.35;;
41623;SDS011;27319;50.306;18.926;2023-12-20T13:50:18;62.65;;;34.30;;
41623;SDS011;27319;50.306;18.926;2023-12-20T13:54:18;65.40;;;34.00;;
41623;SDS011;27319;50.306;18.926;2023-12-20T13:58:19;58.30;;;34.40;;
41623;SDS011;27319;50.306;18.926;2023-12-20T14:02:19;64.50;;;33.90;;
41623;SDS011;27319;50.306;18.926;2023-12-20T14:06:23;49.97;;;27.65;;
41623;SDS011;27319;50.306;18.926;2023-12-20T14:10:24;47.53;;;26.77;;
41623;SDS011;27319;50.306;18.926;2023-12-20T14:14:25;41.75;;;25.05;;
41623;SDS011;27319;50.306;18.926;2023-12-20T14:18:26;54.00;;;30.90;;
41623;SDS011;27319;50.306;18.926;2023-12-20T14:22:26;52.80;;;30.27;;
41623;SDS011;27319;50.306;18.926;2023-12-20T14:26:27;59.13;;;33.30;;
41623;SDS011;27319;50.306;18.926;2023-12-20T14:30:28;53.65;;;28.88;;
41623;SDS011;27319;50.306;18.926;2023-12-20T14:34:29;50.42;;;30.33;;
41623;SDS011;27319;50.306;18.926;2023-12-20T14:38:30;53.17;;;30.33;;
41623;SDS011;27319;50.306;18.926;2023-12-20T14:42:30;60.13;;;35.10;;
41623;SDS011;27319;50.306;18.926;2023-12-20T14:46:11;58.55;;;34.55;;
41623;SDS011;27319;50.306;18.926;2023-12-20T14:50:12;47.33;;;28.67;;
41623;SDS011;27319;50.306;18.926;2023-12-20T14:54:13;51.25;;;28.08;;
41623;SDS011;27319;50.306;18.926;2023-12-20T14:58:14;56.13;;;27.98;;
41623;SDS011;27319;50.306;18.926;2023-12-20T15:02:15;61.30;;;27.83;;
41623;SDS011;27319;50.306;18.926;2023-12-20T15:06:15;60.13;;;27.05;;
41623;SDS011;27319;50.306;18.926;2023-12-20T15:10:16;55.80;;;24.38;;
41623;SDS011;27319;50.306;18.926;2023-12-20T15:14:17;62.50;;;32.95;;
41623;SDS011;27319;50.306;18.926;2023-12-20T15:18:18;59.53;;;31.92;;
41623;SDS011;27319;50.306;18.926;2023-12-20T15:21:19;52.25;;;28.17;;
41623;SDS011;27319;50.306;18.926;2023-12-20T15:25:19;66.35;;;35.83;;
41623;SDS011;27319;50.306;18.926;2023-12-20T15:28:40;55.50;;;31.33;;
41623;SDS011;27319;50.306;18.926;2023-12-20T15:31:45;58.15;;;32.47;;
41623;SDS011;27319;50.306;18.926;2023-12-20T15:35:23;55.13;;;28.13;;
41623;SDS011;27319;50.306;18.926;2023-12-20T15:38:24;46.15;;;26.20;;
41623;SDS011;27319;50.306;18.926;2023-12-20T15:41:25;54.70;;;29.25;;
41623;SDS011;27319;50.306;18.926;2023-12-20T15:45:25;48.10;;;26.10;;
41623;SDS011;27319;50.306;18.926;2023-12-20T15:48:27;50.88;;;25.02;;
41623;SDS011;27319;50.306;18.926;2023-12-20T15:51:29;46.72;;;23.98;;
41623;SDS011;27319;50.306;18.926;2023-12-20T15:55:30;67.88;;;26.75;;
41623;SDS011;27319;50.306;18.926;2023-12-20T15:59:34;61.35;;;29.88;;
41623;SDS011;27319;50.306;18.926;2023-12-20T16:03:35;142.68;;;36.78;;
41623;SDS011;27319;50.306;18.926;2023-12-20T16:07:33;69.15;;;29.40;;
41623;SDS011;27319;50.306;18.926;2023-12-20T16:10:34;64.72;;;31.35;;
41623;SDS011;27319;50.306;18.926;2023-12-20T16:13:35;66.68;;;35.60;;
41623;SDS011;27319;50.306;18.926;2023-12-20T16:16:52;67.00;;;37.85;;
41623;SDS011;27319;50.306;18.926;2023-12-20T16:20:53;68.25;;;34.55;;
41623;SDS011;27319;50.306;18.926;2023-12-20T16:24:53;73.72;;;36.10;;
41623;SDS011;27319;50.306;18.926;2023-12-20T16:28:54;84.45;;;38.90;;
41623;SDS011;27319;50.306;18.926;2023-12-20T16:31:55;71.72;;;37.55;;
41623;SDS011;27319;50.306;18.926;2023-12-20T16:35:23;117.57;;;52.33;;
41623;SDS011;27319;50.306;18.926;2023-12-20T16:38:24;88.03;;;41.70;;
41623;SDS011;27319;50.306;18.926;2023-12-20T16:42:25;61.47;;;30.88;;
41623;SDS011;27319;50.306;18.926;2023-12-20T16:46:26;69.43;;;34.10;;
41623;SDS011;27319;50.306;18.926;2023-12-20T16:49:26;48.97;;;27.10;;
41623;SDS011;27319;50.306;18.926;2023-12-20T16:52:27;44.28;;;23.92;;
41623;SDS011;27319;50.306;18.926;2023-12-20T16:55:28;57.80;;;27.95;;
41623;SDS011;27319;50.306;18.926;2023-12-20T16:58:29;49.15;;;24.02;;
41623;SDS011;27319;50.306;18.926;2023-12-20T17:01:30;60.55;;;27.42;;
41623;SDS011;27319;50.306;18.926;2023-12-20T17:04:31;44.50;;;23.75;;
41623;SDS011;27319;50.306;18.926;2023-12-20T17:08:32;87.80;;;28.92;;
41623;SDS011;27319;50.306;18.926;2023-12-20T17:11:33;72.57;;;24.70;;
41623;SDS011;27319;50.306;18.926;2023-12-20T17:15:33;57.65;;;22.55;;
41623;SDS011;27319;50.306;18.926;2023-12-20T17:18:34;95.93;;;29.17;;
41623;SDS011;27319;50.306;18.926;2023-12-20T17:22:35;51.72;;;23.70;;
41623;SDS011;27319;50.306;18.926;2023-12-20T17:25:36;44.03;;;21.85;;
41623;SDS011;27319;50.306;18.926;2023-12-20T17:28:44;38.72;;;19.42;;
41623;SDS011;27319;50.306;18.926;2023-12-20T17:32:45;33.70;;;18.42;;
41623;SDS011;27319;50.306;18.926;2023-12-20T17:35:49;32.83;;;16.33;;
41623;SDS011;27319;50.306;18.926;2023-12-20T17:38:50;37.38;;;18.98;;
41623;SDS011;27319;50.306;18.926;2023-12-20T17:42:51;38.17;;;17.15;;
41623;SDS011;27319;50.306;18.926;2023-12-20T17:46:51;28.48;;;14.70;;
41623;SDS011;27319;50.306;18.926;2023-12-20T17:49:52;32.92;;;17.38;;
41623;SDS011;27319;50.306;18.926;2023-12-20T17:52:57;26.73;;;16.35;;
41623;SDS011;27319;50.306;18.926;2023-12-20T17:56:18;50.97;;;17.45;;
41623;SDS011;27319;50.306;18.926;2023-12-20T17:59:19;34.45;;;14.55;;
41623;SDS011;27319;50.306;18.926;2023-12-20T18:02:19;55.00;;;16.52;;
41623;SDS011;27319;50.306;18.926;2023-12-20T18:05:21;51.17;;;15.95;;
41623;SDS011;27319;50.306;18.926;2023-12-20T18:08:22;62.42;;;16.60;;
41623;SDS011;27319;50.306;18.926;2023-12-20T18:11:24;50.97;;;15.10;;
41623;SDS011;27319;50.306;18.926;2023-12-20T18:14:25;36.80;;;11.20;;
41623;SDS011;27319;50.306;18.926;2023-12-20T18:17:26;24.52;;;10.82;;
41623;SDS011;27319;50.306;18.926;2023-12-20T18:21:27;24.33;;;12.73;;
41623;SDS011;27319;50.306;18.926;2023-12-20T18:25:28;18.00;;;10.15;;
41623;SDS011;27319;50.306;18.926;2023-12-20T18:29:29;27.67;;;13.50;;
41623;SDS011;27319;50.306;18.926;2023-12-20T18:32:29;28.73;;;15.70;;
41623;SDS011;27319;50.306;18.926;2023-12-20T18:35:30;28.35;;;15.63;;
41623;SDS011;27319;50.306;18.926;2023-12-20T18:38:33;29.75;;;12.90;;
41623;SDS011;27319;50.306;18.926;2023-12-20T18:41:34;26.95;;;12.95;;
41623;SDS011;27319;50.306;18.926;2023-12-20T18:44:39;25.30;;;11.38;;
41623;SDS011;27319;50.306;18.926;2023-12-20T18:47:40;22.10;;;9.80;;
41623;SDS011;27319;50.306;18.926;2023-12-20T18:51:41;22.83;;;10.70;;
41623;SDS011;27319;50.306;18.926;2023-12-20T18:55:42;31.38;;;14.68;;
41623;SDS011;27319;50.306;18.926;2023-12-20T18:59:43;24.00;;;12.27;;
41623;SDS011;27319;50.306;18.926;2023-12-20T19:03:44;23.50;;;12.38;;
41623;SDS011;27319;50.306;18.926;2023-12-20T19:06:45;19.33;;;10.32;;
41623;SDS011;27319;50.306;18.926;2023-12-20T19:09:46;18.52;;;10.15;;
41623;SDS011;27319;50.306;18.926;2023-12-20T19:12:47;21.67;;;10.88;;
41623;SDS011;27319;50.306;18.926;2023-12-20T19:15:47;17.52;;;9.35;;
41623;SDS011;27319;50.306;18.926;2023-12-20T19:18:48;26.05;;;11.20;;
41623;SDS011;27319;50.306;18.926;2023-12-20T19:22:49;25.50;;;11.07;;
41623;SDS011;27319;50.306;18.926;2023-12-20T19:25:50;21.20;;;10.25;;
41623;SDS011;27319;50.306;18.926;2023-12-20T19:29:50;19.83;;;9.77;;
41623;SDS011;27319;50.306;18.926;2023-12-20T19:33:51;16.60;;;8.90;;
41623;SDS011;27319;50.306;18.926;2023-12-20T19:37:52;20.83;;;9.30;;
41623;SDS011;27319;50.306;18.926;2023-12-20T19:40:53;15.07;;;8.63;;
41623;SDS011;27319;50.306;18.926;2023-12-20T19:43:54;16.92;;;9.57;;
41623;SDS011;27319;50.306;18.926;2023-12-20T19:47:11;17.40;;;9.45;;
41623;SDS011;27319;50.306;18.926;2023-12-20T19:50:13;19.65;;;9.25;;
41623;SDS011;27319;50.306;18.926;2023-12-20T19:54:14;24.23;;;10.52;;
41623;SDS011;27319;50.306;18.926;2023-12-20T19:58:15;44.85;;;21.33;;
41623;SDS011;27319;50.306;18.926;2023-12-20T20:01:15;31.63;;;15.10;;
41623;SDS011;27319;50.306;18.926;2023-12-20T20:05:16;28.65;;;12.73;;
41623;SDS011;27319;50.306;18.926;2023-12-20T20:09:17;25.65;;;12.40;;
41623;SDS011;27319;50.306;18.926;2023-12-20T20:13:18;19.63;;;10.40;;
41623;SDS011;27319;50.306;18.926;2023-12-20T20:17:19;24.17;;;9.52;;
41623;SDS011;27319;50.306;18.926;2023-12-20T20:21:19;30.20;;;10.52;;
41623;SDS011;27319;50.306;18.926;2023-12-20T20:25:20;49.97;;;20.23;;
41623;SDS011;27319;50.306;18.926;2023-12-20T20:29:21;30.70;;;13.05;;
41623;SDS011;27319;50.306;18.926;2023-12-20T20:33:22;52.78;;;18.48;;
41623;SDS011;27319;50.306;18.926;2023-12-20T20:37:23;51.53;;;18.02;;
41623;SDS011;27319;50.306;18.926;2023-12-20T20:41:24;36.47;;;14.18;;
41623;SDS011;27319;50.306;18.926;2023-12-20T20:45:24;40.78;;;14.80;;
41623;SDS011;27319;50.306;18.926;2023-12-20T20:49:25;39.63;;;13.55;;
41623;SDS011;27319;50.306;18.926;2023-12-20T20:52:26;39.85;;;13.23;;
41623;SDS011;27319;50.306;18.926;2023-12-20T20:55:27;46.80;;;14.75;;
41623;SDS011;27319;50.306;18.926;2023-12-20T20:58:27;17.98;;;8.88;;
41623;SDS011;27319;50.306;18.926;2023-12-20T21:01:28;40.30;;;14.57;;
41623;SDS011;27319;50.306;18.926;2023-12-20T21:04:31;32.92;;;14.50;;
41623;SDS011;27319;50.306;18.926;2023-12-20T21:07:56;77.95;;;24.73;;
41623;SDS011;27319;50.306;18.926;2023-12-20T21:11:51;50.75;;;17.20;;
41623;SDS011;27319;50.306;18.926;2023-12-20T21:14:52;43.33;;;15.98;;
41623;SDS011;27319;50.306;18.926;2023-12-20T21:18:53;39.65;;;14.52;;
41623;SDS011;27319;50.306;18.926;2023-12-20T21:22:54;67.88;;;21.00;;
41623;SDS011;27319;50.306;18.926;2023-12-20T21:26:57;60.22;;;20.60;;
41623;SDS011;27319;50.306;18.926;2023-12-20T21:31:01;42.72;;;16.90;;
41623;SDS011;27319;50.306;18.926;2023-12-20T21:34:02;41.35;;;14.30;;
41623;SDS011;27319;50.306;18.926;2023-12-20T21:37:03;36.95;;;15.50;;
41623;SDS011;27319;50.306;18.926;2023-12-20T21:40:04;43.03;;;14.98;;
41623;SDS011;27319;50.306;18.926;2023-12-20T21:43:05;34.53;;;12.73;;
41623;SDS011;27319;50.306;18.926;2023-12-20T21:47:06;34.30;;;12.23;;
41623;SDS011;27319;50.306;18.926;2023-12-20T21:51:07;25.95;;;11.13;;
41623;SDS011;27319;50.306;18.926;2023-12-20T21:55:08;37.03;;;12.68;;
41623;SDS011;27319;50.306;18.926;2023-12-20T21:59:09;36.03;;;13.73;;